sensor_id;sensor_type;location;lat;lon;timestamp;temperature;humidity
47600;DHT22;33323;52.124;6.018;2024-02-04T00:00:31;9.90;99.90
47600;DHT22;33323;52.124;6.018;2024-02-04T00:02:59;9.90;99.90
47600;DHT22;33323;52.124;6.018;2024-02-04T00:05:26;9.90;99.90
47600;DHT22;33323;52.124;6.018;2024-02-04T00:07:53;9.90;99.90
47600;DHT22;33323;52.124;6.018;2024-02-04T00:10:20;9.90;99.90
47600;DHT22;33323;52.124;6.018;2024-02-04T00:12:48;9.90;99.90
47600;DHT22;33323;52.124;6.018;2024-02-04T00:15:15;9.90;99.90
47600;DHT22;33323;52.124;6.018;2024-02-04T00:17:42;9.90;99.90
47600;DHT22;33323;52.124;6.018;2024-02-04T00:20:10;9.90;99.90
47600;DHT22;33323;52.124;6.018;2024-02-04T00:22:38;9.90;99.90
47600;DHT22;33323;52.124;6.018;2024-02-04T00:25:05;9.90;99.90
47600;DHT22;33323;52.124;6.018;2024-02-04T00:27:33;9.90;99.90
47600;DHT22;33323;52.124;6.018;2024-02-04T00:30:00;9.90;99.90
47600;DHT22;33323;52.124;6.018;2024-02-04T00:32:28;9.80;99.90
47600;DHT22;33323;52.124;6.018;2024-02-04T00:34:55;9.90;99.90
47600;DHT22;33323;52.124;6.018;2024-02-04T00:37:23;9.90;99.90
47600;DHT22;33323;52.124;6.018;2024-02-04T00:39:50;9.90;99.90
47600;DHT22;33323;52.124;6.018;2024-02-04T00:42:18;9.90;99.90
47600;DHT22;33323;52.124;6.018;2024-02-04T00:44:45;9.80;99.90
47600;DHT22;33323;52.124;6.018;2024-02-04T00:47:12;9.90;99.90
47600;DHT22;33323;52.124;6.018;2024-02-04T00:49:40;9.90;99.90
47600;DHT22;33323;52.124;6.018;2024-02-04T00:52:07;9.80;99.90
47600;DHT22;33323;52.124;6.018;2024-02-04T00:54:35;9.80;99.90
47600;DHT22;33323;52.124;6.018;2024-02-04T00:57:02;9.80;99.90
47600;DHT22;33323;52.124;6.018;2024-02-04T00:59:30;9.90;99.90
47600;DHT22;33323;52.124;6.018;2024-02-04T01:01:57;9.90;99.90
47600;DHT22;33323;52.124;6.018;2024-02-04T01:04:25;9.90;99.90
47600;DHT22;33323;52.124;6.018;2024-02-04T01:06:53;9.80;99.90
47600;DHT22;33323;52.124;6.018;2024-02-04T01:09:28;9.90;99.90
47600;DHT22;33323;52.124;6.018;2024-02-04T01:11:57;9.90;99.90
47600;DHT22;33323;52.124;6.018;2024-02-04T01:14:24;9.90;99.90
47600;DHT22;33323;52.124;6.018;2024-02-04T01:16:51;9.90;99.90
47600;DHT22;33323;52.124;6.018;2024-02-04T01:19:18;9.90;99.90
47600;DHT22;33323;52.124;6.018;2024-02-04T01:21:46;9.90;99.90
47600;DHT22;33323;52.124;6.018;2024-02-04T01:24:13;9.90;99.90
47600;DHT22;33323;52.124;6.018;2024-02-04T01:26:40;9.90;99.90
47600;DHT22;33323;52.124;6.018;2024-02-04T01:29:07;9.90;99.90
47600;DHT22;33323;52.124;6.018;2024-02-04T01:31:34;9.90;99.90
47600;DHT22;33323;52.124;6.018;2024-02-04T01:34:01;9.90;99.90
47600;DHT22;33323;52.124;6.018;2024-02-04T01:36:28;9.90;99.90
47600;DHT22;33323;52.124;6.018;2024-02-04T01:38:56;9.80;99.90
47600;DHT22;33323;52.124;6.018;2024-02-04T01:41:24;9.80;99.90
47600;DHT22;33323;52.124;6.018;2024-02-04T01:43:54;9.80;99.90
47600;DHT22;33323;52.124;6.018;2024-02-04T01:46:21;9.80;99.90
47600;DHT22;33323;52.124;6.018;2024-02-04T01:48:49;9.80;99.90
47600;DHT22;33323;52.124;6.018;2024-02-04T01:51:17;9.70;99.90
47600;DHT22;33323;52.124;6.018;2024-02-04T01:53:46;9.70;99.90
47600;DHT22;33323;52.124;6.018;2024-02-04T01:56:14;9.70;99.90
47600;DHT22;33323;52.124;6.018;2024-02-04T01:58:42;9.70;99.90
47600;DHT22;33323;52.124;6.018;2024-02-04T02:01:13;9.70;99.90
47600;DHT22;33323;52.124;6.018;2024-02-04T02:03:40;9.60;99.90
47600;DHT22;33323;52.124;6.018;2024-02-04T02:06:08;9.60;99.90
47600;DHT22;33323;52.124;6.018;2024-02-04T02:08:35;9.60;99.90
47600;DHT22;33323;52.124;6.018;2024-02-04T02:11:18;9.60;99.90
47600;DHT22;33323;52.124;6.018;2024-02-04T02:13:49;9.60;99.90
47600;DHT22;33323;52.124;6.018;2024-02-04T02:16:20;9.60;99.90
47600;DHT22;33323;52.124;6.018;2024-02-04T02:18:53;9.50;99.90
47600;DHT22;33323;52.124;6.018;2024-02-04T02:21:47;9.60;99.90
47600;DHT22;33323;52.124;6.018;2024-02-04T02:26:50;9.60;99.90
47600;DHT22;33323;52.124;6.018;2024-02-04T02:29:17;9.60;99.90
47600;DHT22;33323;52.124;6.018;2024-02-04T02:31:45;9.60;99.90
47600;DHT22;33323;52.124;6.018;2024-02-04T02:34:15;9.60;99.90
47600;DHT22;33323;52.124;6.018;2024-02-04T02:37:04;9.50;99.90
47600;DHT22;33323;52.124;6.018;2024-02-04T02:39:42;9.50;99.90
47600;DHT22;33323;52.124;6.018;2024-02-04T02:42:13;9.40;99.90
47600;DHT22;33323;52.124;6.018;2024-02-04T02:44:43;9.40;99.90
47600;DHT22;33323;52.124;6.018;2024-02-04T02:47:11;9.40;99.90
47600;DHT22;33323;52.124;6.018;2024-02-04T02:49:39;9.30;99.90
47600;DHT22;33323;52.124;6.018;2024-02-04T02:52:06;9.40;99.90
47600;DHT22;33323;52.124;6.018;2024-02-04T02:54:33;9.40;99.90
47600;DHT22;33323;52.124;6.018;2024-02-04T02:57:00;9.40;99.90
47600;DHT22;33323;52.124;6.018;2024-02-04T02:59:28;9.40;99.90
47600;DHT22;33323;52.124;6.018;2024-02-04T03:01:55;9.40;99.90
47600;DHT22;33323;52.124;6.018;2024-02-04T03:04:22;9.40;99.90
47600;DHT22;33323;52.124;6.018;2024-02-04T03:06:49;9.30;99.90
47600;DHT22;33323;52.124;6.018;2024-02-04T03:09:16;9.30;99.90
47600;DHT22;33323;52.124;6.018;2024-02-04T03:11:43;9.20;99.90
47600;DHT22;33323;52.124;6.018;2024-02-04T03:14:10;9.20;99.90
47600;DHT22;33323;52.124;6.018;2024-02-04T03:16:37;9.20;99.90
47600;DHT22;33323;52.124;6.018;2024-02-04T03:19:05;9.10;99.90
47600;DHT22;33323;52.124;6.018;2024-02-04T03:21:33;9.10;99.90
47600;DHT22;33323;52.124;6.018;2024-02-04T03:24:00;9.10;99.90
47600;DHT22;33323;52.124;6.018;2024-02-04T03:26:27;9.00;99.90
47600;DHT22;33323;52.124;6.018;2024-02-04T03:28:54;9.00;99.90
47600;DHT22;33323;52.124;6.018;2024-02-04T03:31:22;9.00;99.90
47600;DHT22;33323;52.124;6.018;2024-02-04T03:33:50;9.00;99.90
47600;DHT22;33323;52.124;6.018;2024-02-04T03:36:21;9.00;99.90
47600;DHT22;33323;52.124;6.018;2024-02-04T03:38:51;9.00;99.90
47600;DHT22;33323;52.124;6.018;2024-02-04T03:41:18;9.00;99.90
47600;DHT22;33323;52.124;6.018;2024-02-04T03:43:46;9.00;99.90
47600;DHT22;33323;52.124;6.018;2024-02-04T03:46:14;9.00;99.90
47600;DHT22;33323;52.124;6.018;2024-02-04T03:48:42;9.10;99.90
47600;DHT22;33323;52.124;6.018;2024-02-04T03:51:17;9.10;99.90
47600;DHT22;33323;52.124;6.018;2024-02-04T03:53:47;9.00;99.90
47600;DHT22;33323;52.124;6.018;2024-02-04T03:56:14;9.10;99.90
47600;DHT22;33323;52.124;6.018;2024-02-04T03:58:41;9.10;99.90
47600;DHT22;33323;52.124;6.018;2024-02-04T04:01:12;9.00;99.90
47600;DHT22;33323;52.124;6.018;2024-02-04T04:03:40;9.10;99.90
47600;DHT22;33323;52.124;6.018;2024-02-04T04:06:11;9.10;99.90
47600;DHT22;33323;52.124;6.018;2024-02-04T04:08:39;9.10;99.90
47600;DHT22;33323;52.124;6.018;2024-02-04T04:11:08;9.10;99.90
47600;DHT22;33323;52.124;6.018;2024-02-04T04:13:37;9.10;99.90
47600;DHT22;33323;52.124;6.018;2024-02-04T04:16:05;9.10;99.90
47600;DHT22;33323;52.124;6.018;2024-02-04T04:18:32;9.10;99.90
47600;DHT22;33323;52.124;6.018;2024-02-04T04:21:00;9.10;99.90
47600;DHT22;33323;52.124;6.018;2024-02-04T04:23:28;9.00;99.90
47600;DHT22;33323;52.124;6.018;2024-02-04T04:25:55;9.00;99.90
47600;DHT22;33323;52.124;6.018;2024-02-04T04:28:22;9.00;99.90
47600;DHT22;33323;52.124;6.018;2024-02-04T04:30:49;9.00;99.90
47600;DHT22;33323;52.124;6.018;2024-02-04T04:33:16;9.00;99.90
47600;DHT22;33323;52.124;6.018;2024-02-04T04:35:43;9.00;99.90
47600;DHT22;33323;52.124;6.018;2024-02-04T04:38:10;9.00;99.90
47600;DHT22;33323;52.124;6.018;2024-02-04T04:40:37;9.00;99.90
47600;DHT22;33323;52.124;6.018;2024-02-04T04:43:04;9.00;99.90
47600;DHT22;33323;52.124;6.018;2024-02-04T04:45:31;9.00;99.90
47600;DHT22;33323;52.124;6.018;2024-02-04T04:47:58;9.00;99.90
47600;DHT22;33323;52.124;6.018;2024-02-04T04:50:25;9.00;99.90
47600;DHT22;33323;52.124;6.018;2024-02-04T04:52:53;8.90;99.90
47600;DHT22;33323;52.124;6.018;2024-02-04T04:55:20;8.90;99.90
47600;DHT22;33323;52.124;6.018;2024-02-04T04:57:47;8.90;99.90
47600;DHT22;33323;52.124;6.018;2024-02-04T05:00:15;8.80;99.90
47600;DHT22;33323;52.124;6.018;2024-02-04T05:02:43;8.90;99.90
47600;DHT22;33323;52.124;6.018;2024-02-04T05:05:11;8.80;99.90
47600;DHT22;33323;52.124;6.018;2024-02-04T05:07:39;8.80;99.90
47600;DHT22;33323;52.124;6.018;2024-02-04T05:10:07;8.80;99.90
47600;DHT22;33323;52.124;6.018;2024-02-04T05:12:35;8.80;99.90
47600;DHT22;33323;52.124;6.018;2024-02-04T05:15:04;8.80;99.90
47600;DHT22;33323;52.124;6.018;2024-02-04T05:17:32;8.80;99.90
47600;DHT22;33323;52.124;6.018;2024-02-04T05:20:00;8.80;99.90
47600;DHT22;33323;52.124;6.018;2024-02-04T05:22:29;8.80;99.90
47600;DHT22;33323;52.124;6.018;2024-02-04T05:24:56;8.80;99.90
47600;DHT22;33323;52.124;6.018;2024-02-04T05:27:24;8.80;99.90
47600;DHT22;33323;52.124;6.018;2024-02-04T05:29:51;8.80;99.90
47600;DHT22;33323;52.124;6.018;2024-02-04T05:32:18;8.70;99.90
47600;DHT22;33323;52.124;6.018;2024-02-04T05:34:45;8.70;99.90
47600;DHT22;33323;52.124;6.018;2024-02-04T05:37:12;8.70;99.90
47600;DHT22;33323;52.124;6.018;2024-02-04T05:39:39;8.80;99.90
47600;DHT22;33323;52.124;6.018;2024-02-04T05:42:06;8.70;99.90
47600;DHT22;33323;52.124;6.018;2024-02-04T05:44:33;8.80;99.90
47600;DHT22;33323;52.124;6.018;2024-02-04T05:47:00;8.70;99.90
47600;DHT22;33323;52.124;6.018;2024-02-04T05:49:28;8.70;99.90
47600;DHT22;33323;52.124;6.018;2024-02-04T05:51:55;8.70;99.90
47600;DHT22;33323;52.124;6.018;2024-02-04T05:54:22;8.70;99.90
47600;DHT22;33323;52.124;6.018;2024-02-04T05:56:50;8.70;99.90
47600;DHT22;33323;52.124;6.018;2024-02-04T05:59:17;8.70;99.90
47600;DHT22;33323;52.124;6.018;2024-02-04T06:01:44;8.70;99.90
47600;DHT22;33323;52.124;6.018;2024-02-04T06:04:11;8.70;99.90
47600;DHT22;33323;52.124;6.018;2024-02-04T06:06:38;8.70;99.90
47600;DHT22;33323;52.124;6.018;2024-02-04T06:09:06;8.70;99.90
47600;DHT22;33323;52.124;6.018;2024-02-04T06:11:33;8.70;99.90
47600;DHT22;33323;52.124;6.018;2024-02-04T06:14:00;8.60;99.90
47600;DHT22;33323;52.124;6.018;2024-02-04T06:16:28;8.70;99.90
47600;DHT22;33323;52.124;6.018;2024-02-04T06:18:55;8.60;99.90
47600;DHT22;33323;52.124;6.018;2024-02-04T06:21:24;8.70;99.90
47600;DHT22;33323;52.124;6.018;2024-02-04T06:23:51;8.70;99.90
47600;DHT22;33323;52.124;6.018;2024-02-04T06:26:18;8.60;99.90
47600;DHT22;33323;52.124;6.018;2024-02-04T06:28:45;8.60;99.90
47600;DHT22;33323;52.124;6.018;2024-02-04T06:31:13;8.70;99.90
47600;DHT22;33323;52.124;6.018;2024-02-04T06:33:41;8.70;99.90
47600;DHT22;33323;52.124;6.018;2024-02-04T06:36:09;8.70;99.90
47600;DHT22;33323;52.124;6.018;2024-02-04T06:38:37;8.70;99.90
47600;DHT22;33323;52.124;6.018;2024-02-04T06:41:04;8.70;99.90
47600;DHT22;33323;52.124;6.018;2024-02-04T06:43:31;8.60;99.90
47600;DHT22;33323;52.124;6.018;2024-02-04T06:46:02;8.60;99.90
47600;DHT22;33323;52.124;6.018;2024-02-04T06:48:30;8.60;99.90
47600;DHT22;33323;52.124;6.018;2024-02-04T06:50:57;8.60;99.90
47600;DHT22;33323;52.124;6.018;2024-02-04T06:53:25;8.60;99.90
47600;DHT22;33323;52.124;6.018;2024-02-04T06:55:52;8.50;99.90
47600;DHT22;33323;52.124;6.018;2024-02-04T06:58:19;8.60;99.90
47600;DHT22;33323;52.124;6.018;2024-02-04T07:00:46;8.60;99.90
47600;DHT22;33323;52.124;6.018;2024-02-04T07:03:14;8.60;99.90
47600;DHT22;33323;52.124;6.018;2024-02-04T07:05:41;8.60;99.90
47600;DHT22;33323;52.124;6.018;2024-02-04T07:08:09;8.50;99.90
47600;DHT22;33323;52.124;6.018;2024-02-04T07:10:36;8.60;99.90
47600;DHT22;33323;52.124;6.018;2024-02-04T07:13:03;8.50;99.90
47600;DHT22;33323;52.124;6.018;2024-02-04T07:15:30;8.60;99.90
47600;DHT22;33323;52.124;6.018;2024-02-04T07:17:58;8.50;99.90
47600;DHT22;33323;52.124;6.018;2024-02-04T07:20:25;8.50;99.90
47600;DHT22;33323;52.124;6.018;2024-02-04T07:22:52;8.50;99.90
47600;DHT22;33323;52.124;6.018;2024-02-04T07:25:19;8.50;99.90
47600;DHT22;33323;52.124;6.018;2024-02-04T07:27:47;8.40;99.90
47600;DHT22;33323;52.124;6.018;2024-02-04T07:30:14;8.40;99.90
47600;DHT22;33323;52.124;6.018;2024-02-04T07:32:41;8.40;99.90
47600;DHT22;33323;52.124;6.018;2024-02-04T07:35:09;8.50;99.90
47600;DHT22;33323;52.124;6.018;2024-02-04T07:37:37;8.50;99.90
47600;DHT22;33323;52.124;6.018;2024-02-04T07:40:05;8.50;99.90
47600;DHT22;33323;52.124;6.018;2024-02-04T07:42:33;8.60;99.90
47600;DHT22;33323;52.124;6.018;2024-02-04T07:45:00;8.60;99.90
47600;DHT22;33323;52.124;6.018;2024-02-04T07:47:29;8.60;99.90
47600;DHT22;33323;52.124;6.018;2024-02-04T07:49:56;8.60;99.90
47600;DHT22;33323;52.124;6.018;2024-02-04T07:52:23;8.60;99.90
47600;DHT22;33323;52.124;6.018;2024-02-04T07:54:50;8.70;99.90
47600;DHT22;33323;52.124;6.018;2024-02-04T07:57:17;8.70;99.90
47600;DHT22;33323;52.124;6.018;2024-02-04T07:59:44;8.70;99.90
47600;DHT22;33323;52.124;6.018;2024-02-04T08:02:11;8.80;99.90
47600;DHT22;33323;52.124;6.018;2024-02-04T08:04:42;8.80;99.90
47600;DHT22;33323;52.124;6.018;2024-02-04T08:07:09;8.80;99.90
47600;DHT22;33323;52.124;6.018;2024-02-04T08:09:36;8.80;99.90
47600;DHT22;33323;52.124;6.018;2024-02-04T08:12:04;8.80;99.90
47600;DHT22;33323;52.124;6.018;2024-02-04T08:14:31;8.90;99.90
47600;DHT22;33323;52.124;6.018;2024-02-04T08:16:58;8.90;99.90
47600;DHT22;33323;52.124;6.018;2024-02-04T08:19:25;8.90;99.90
47600;DHT22;33323;52.124;6.018;2024-02-04T08:21:52;8.90;99.90
47600;DHT22;33323;52.124;6.018;2024-02-04T08:24:19;8.80;99.90
47600;DHT22;33323;52.124;6.018;2024-02-04T08:26:46;8.80;99.90
47600;DHT22;33323;52.124;6.018;2024-02-04T08:29:13;8.80;99.90
47600;DHT22;33323;52.124;6.018;2024-02-04T08:31:41;8.80;99.90
47600;DHT22;33323;52.124;6.018;2024-02-04T08:34:08;8.90;99.90
47600;DHT22;33323;52.124;6.018;2024-02-04T08:36:36;9.00;99.90
47600;DHT22;33323;52.124;6.018;2024-02-04T08:39:03;9.00;99.90
47600;DHT22;33323;52.124;6.018;2024-02-04T08:41:31;9.10;99.90
47600;DHT22;33323;52.124;6.018;2024-02-04T08:43:58;9.10;99.90
47600;DHT22;33323;52.124;6.018;2024-02-04T08:46:29;9.20;99.90
47600;DHT22;33323;52.124;6.018;2024-02-04T08:48:56;9.20;99.90
47600;DHT22;33323;52.124;6.018;2024-02-04T08:51:24;9.20;99.90
47600;DHT22;33323;52.124;6.018;2024-02-04T08:53:54;9.20;99.90
47600;DHT22;33323;52.124;6.018;2024-02-04T08:56:22;9.30;99.90
47600;DHT22;33323;52.124;6.018;2024-02-04T08:58:49;9.30;99.90
47600;DHT22;33323;52.124;6.018;2024-02-04T09:01:16;9.30;99.90
47600;DHT22;33323;52.124;6.018;2024-02-04T09:03:43;9.30;99.90
47600;DHT22;33323;52.124;6.018;2024-02-04T09:06:10;9.40;99.90
47600;DHT22;33323;52.124;6.018;2024-02-04T09:08:37;9.40;99.90
47600;DHT22;33323;52.124;6.018;2024-02-04T09:11:04;9.40;99.90
47600;DHT22;33323;52.124;6.018;2024-02-04T09:13:31;9.40;99.90
47600;DHT22;33323;52.124;6.018;2024-02-04T09:15:58;9.40;99.90
47600;DHT22;33323;52.124;6.018;2024-02-04T09:18:25;9.40;99.90
47600;DHT22;33323;52.124;6.018;2024-02-04T09:20:53;9.40;99.90
47600;DHT22;33323;52.124;6.018;2024-02-04T09:23:20;9.40;99.90
47600;DHT22;33323;52.124;6.018;2024-02-04T09:25:47;9.40;99.90
47600;DHT22;33323;52.124;6.018;2024-02-04T09:28:15;9.40;99.90
47600;DHT22;33323;52.124;6.018;2024-02-04T09:30:42;9.40;99.90
47600;DHT22;33323;52.124;6.018;2024-02-04T09:33:09;9.40;99.90
47600;DHT22;33323;52.124;6.018;2024-02-04T09:35:37;9.30;99.90
47600;DHT22;33323;52.124;6.018;2024-02-04T09:38:04;9.30;99.90
47600;DHT22;33323;52.124;6.018;2024-02-04T09:40:35;9.30;99.90
47600;DHT22;33323;52.124;6.018;2024-02-04T09:43:03;9.40;99.90
47600;DHT22;33323;52.124;6.018;2024-02-04T09:45:31;9.30;99.90
47600;DHT22;33323;52.124;6.018;2024-02-04T09:48:00;9.30;99.90
47600;DHT22;33323;52.124;6.018;2024-02-04T09:50:28;9.30;99.90
47600;DHT22;33323;52.124;6.018;2024-02-04T09:52:58;9.30;99.90
47600;DHT22;33323;52.124;6.018;2024-02-04T09:55:29;9.30;99.90
47600;DHT22;33323;52.124;6.018;2024-02-04T09:57:56;9.40;99.90
47600;DHT22;33323;52.124;6.018;2024-02-04T10:00:26;9.40;99.90
47600;DHT22;33323;52.124;6.018;2024-02-04T10:02:55;9.40;99.90
47600;DHT22;33323;52.124;6.018;2024-02-04T10:05:23;9.40;99.90
47600;DHT22;33323;52.124;6.018;2024-02-04T10:07:50;9.50;99.90
47600;DHT22;33323;52.124;6.018;2024-02-04T10:10:17;9.60;99.90
47600;DHT22;33323;52.124;6.018;2024-02-04T10:12:45;9.60;99.90
47600;DHT22;33323;52.124;6.018;2024-02-04T10:15:12;9.70;99.90
47600;DHT22;33323;52.124;6.018;2024-02-04T10:17:46;9.80;99.90
47600;DHT22;33323;52.124;6.018;2024-02-04T10:20:14;9.90;99.90
47600;DHT22;33323;52.124;6.018;2024-02-04T10:22:46;10.00;99.90
47600;DHT22;33323;52.124;6.018;2024-02-04T10:25:13;10.00;99.90
47600;DHT22;33323;52.124;6.018;2024-02-04T10:27:42;10.00;99.90
47600;DHT22;33323;52.124;6.018;2024-02-04T10:30:09;10.10;99.90
47600;DHT22;33323;52.124;6.018;2024-02-04T10:32:38;10.20;99.90
47600;DHT22;33323;52.124;6.018;2024-02-04T10:35:05;10.20;99.90
47600;DHT22;33323;52.124;6.018;2024-02-04T10:37:32;10.20;99.90
47600;DHT22;33323;52.124;6.018;2024-02-04T10:39:59;10.30;99.90
47600;DHT22;33323;52.124;6.018;2024-02-04T10:42:27;10.30;99.90
47600;DHT22;33323;52.124;6.018;2024-02-04T10:44:55;10.30;99.90
47600;DHT22;33323;52.124;6.018;2024-02-04T10:47:30;10.40;99.90
47600;DHT22;33323;52.124;6.018;2024-02-04T10:50:02;10.30;99.90
47600;DHT22;33323;52.124;6.018;2024-02-04T10:52:39;10.40;99.90
47600;DHT22;33323;52.124;6.018;2024-02-04T10:55:08;10.40;99.90
47600;DHT22;33323;52.124;6.018;2024-02-04T10:57:40;10.40;99.90
47600;DHT22;33323;52.124;6.018;2024-02-04T11:00:08;10.40;99.90
47600;DHT22;33323;52.124;6.018;2024-02-04T11:02:39;10.40;99.90
47600;DHT22;33323;52.124;6.018;2024-02-04T11:05:08;10.40;99.90
47600;DHT22;33323;52.124;6.018;2024-02-04T11:07:37;10.50;99.90
47600;DHT22;33323;52.124;6.018;2024-02-04T11:10:04;10.50;99.90
47600;DHT22;33323;52.124;6.018;2024-02-04T11:12:33;10.50;99.90
47600;DHT22;33323;52.124;6.018;2024-02-04T11:15:05;10.50;99.90
47600;DHT22;33323;52.124;6.018;2024-02-04T11:21:03;10.50;99.90
47600;DHT22;33323;52.124;6.018;2024-02-04T11:23:59;10.50;99.90
47600;DHT22;33323;52.124;6.018;2024-02-04T11:26:31;10.50;99.90
47600;DHT22;33323;52.124;6.018;2024-02-04T11:28:58;10.40;99.90
47600;DHT22;33323;52.124;6.018;2024-02-04T11:31:28;10.30;99.90
47600;DHT22;33323;52.124;6.018;2024-02-04T11:33:56;10.30;99.90
47600;DHT22;33323;52.124;6.018;2024-02-04T11:36:26;10.30;99.90
47600;DHT22;33323;52.124;6.018;2024-02-04T11:38:54;10.30;99.90
47600;DHT22;33323;52.124;6.018;2024-02-04T11:41:23;10.30;99.90
47600;DHT22;33323;52.124;6.018;2024-02-04T11:43:56;10.30;99.90
47600;DHT22;33323;52.124;6.018;2024-02-04T11:46:31;10.30;99.90
47600;DHT22;33323;52.124;6.018;2024-02-04T11:49:00;10.30;99.90
47600;DHT22;33323;52.124;6.018;2024-02-04T11:51:28;10.30;99.90
47600;DHT22;33323;52.124;6.018;2024-02-04T11:53:58;10.30;99.90
47600;DHT22;33323;52.124;6.018;2024-02-04T11:56:28;10.30;99.90
47600;DHT22;33323;52.124;6.018;2024-02-04T11:58:56;10.30;99.90
47600;DHT22;33323;52.124;6.018;2024-02-04T12:01:24;10.20;99.90
47600;DHT22;33323;52.124;6.018;2024-02-04T12:03:52;10.20;99.90
47600;DHT22;33323;52.124;6.018;2024-02-04T12:06:19;10.20;99.90
47600;DHT22;33323;52.124;6.018;2024-02-04T12:08:47;10.20;99.90
47600;DHT22;33323;52.124;6.018;2024-02-04T12:11:15;10.30;99.90
47600;DHT22;33323;52.124;6.018;2024-02-04T12:13:43;10.30;99.90
47600;DHT22;33323;52.124;6.018;2024-02-04T12:16:11;10.30;99.90
47600;DHT22;33323;52.124;6.018;2024-02-04T12:18:48;10.30;99.90
47600;DHT22;33323;52.124;6.018;2024-02-04T12:21:19;10.30;99.90
47600;DHT22;33323;52.124;6.018;2024-02-04T12:23:48;10.30;99.90
47600;DHT22;33323;52.124;6.018;2024-02-04T12:26:15;10.30;99.90
47600;DHT22;33323;52.124;6.018;2024-02-04T12:28:43;10.30;99.90
47600;DHT22;33323;52.124;6.018;2024-02-04T12:31:18;10.30;99.90
47600;DHT22;33323;52.124;6.018;2024-02-04T12:33:54;10.30;99.90
47600;DHT22;33323;52.124;6.018;2024-02-04T12:36:31;10.30;99.90
47600;DHT22;33323;52.124;6.018;2024-02-04T12:39:01;10.30;99.90
47600;DHT22;33323;52.124;6.018;2024-02-04T12:41:30;10.30;99.90
47600;DHT22;33323;52.124;6.018;2024-02-04T12:43:59;10.30;99.90
47600;DHT22;33323;52.124;6.018;2024-02-04T12:46:27;10.30;99.90
47600;DHT22;33323;52.124;6.018;2024-02-04T12:48:57;10.40;99.90
47600;DHT22;33323;52.124;6.018;2024-02-04T12:51:32;10.30;99.90
47600;DHT22;33323;52.124;6.018;2024-02-04T12:54:06;10.40;99.90
47600;DHT22;33323;52.124;6.018;2024-02-04T12:56:54;10.30;99.90
47600;DHT22;33323;52.124;6.018;2024-02-04T12:59:29;10.30;99.90
47600;DHT22;33323;52.124;6.018;2024-02-04T13:02:03;10.40;99.90
47600;DHT22;33323;52.124;6.018;2024-02-04T13:04:41;10.40;99.90
47600;DHT22;33323;52.124;6.018;2024-02-04T13:07:14;10.30;99.90
47600;DHT22;33323;52.124;6.018;2024-02-04T13:09:46;10.30;99.90
47600;DHT22;33323;52.124;6.018;2024-02-04T13:12:14;10.30;99.90
47600;DHT22;33323;52.124;6.018;2024-02-04T13:14:44;10.30;99.90
47600;DHT22;33323;52.124;6.018;2024-02-04T13:17:12;10.30;99.90
47600;DHT22;33323;52.124;6.018;2024-02-04T13:19:39;10.40;99.90
47600;DHT22;33323;52.124;6.018;2024-02-04T13:22:13;10.40;99.90
47600;DHT22;33323;52.124;6.018;2024-02-04T13:24:41;10.50;99.90
47600;DHT22;33323;52.124;6.018;2024-02-04T13:27:09;10.40;99.90
47600;DHT22;33323;52.124;6.018;2024-02-04T13:29:36;10.40;99.90
47600;DHT22;33323;52.124;6.018;2024-02-04T13:32:05;10.40;99.90
47600;DHT22;33323;52.124;6.018;2024-02-04T13:34:33;10.40;99.90
47600;DHT22;33323;52.124;6.018;2024-02-04T13:37:02;10.40;99.90
47600;DHT22;33323;52.124;6.018;2024-02-04T13:39:29;10.30;99.90
47600;DHT22;33323;52.124;6.018;2024-02-04T13:41:58;10.30;99.90
47600;DHT22;33323;52.124;6.018;2024-02-04T13:44:25;10.30;99.90
47600;DHT22;33323;52.124;6.018;2024-02-04T13:46:53;10.40;99.90
47600;DHT22;33323;52.124;6.018;2024-02-04T13:49:21;10.30;99.90
47600;DHT22;33323;52.124;6.018;2024-02-04T13:51:49;10.30;99.90
47600;DHT22;33323;52.124;6.018;2024-02-04T13:54:18;10.30;99.90
47600;DHT22;33323;52.124;6.018;2024-02-04T13:56:45;10.30;99.90
47600;DHT22;33323;52.124;6.018;2024-02-04T13:59:14;10.30;99.90
47600;DHT22;33323;52.124;6.018;2024-02-04T14:01:41;10.30;99.90
47600;DHT22;33323;52.124;6.018;2024-02-04T14:04:09;10.30;99.90
47600;DHT22;33323;52.124;6.018;2024-02-04T14:06:37;10.30;99.90
47600;DHT22;33323;52.124;6.018;2024-02-04T14:09:06;10.30;99.90
47600;DHT22;33323;52.124;6.018;2024-02-04T14:11:33;10.40;99.90
47600;DHT22;33323;52.124;6.018;2024-02-04T14:14:00;10.40;99.90
47600;DHT22;33323;52.124;6.018;2024-02-04T14:16:28;10.30;99.90
47600;DHT22;33323;52.124;6.018;2024-02-04T14:18:55;10.40;99.90
47600;DHT22;33323;52.124;6.018;2024-02-04T14:21:26;10.40;99.90
47600;DHT22;33323;52.124;6.018;2024-02-04T14:23:54;10.20;99.90
47600;DHT22;33323;52.124;6.018;2024-02-04T14:26:21;10.20;99.90
47600;DHT22;33323;52.124;6.018;2024-02-04T14:28:48;10.20;99.90
47600;DHT22;33323;52.124;6.018;2024-02-04T14:31:16;10.20;99.90
47600;DHT22;33323;52.124;6.018;2024-02-04T14:33:43;10.20;99.90
47600;DHT22;33323;52.124;6.018;2024-02-04T14:36:11;10.20;99.90
47600;DHT22;33323;52.124;6.018;2024-02-04T14:38:38;10.20;99.90
47600;DHT22;33323;52.124;6.018;2024-02-04T14:41:06;10.20;99.90
47600;DHT22;33323;52.124;6.018;2024-02-04T14:43:34;10.20;99.90
47600;DHT22;33323;52.124;6.018;2024-02-04T14:46:01;10.20;99.90
47600;DHT22;33323;52.124;6.018;2024-02-04T14:48:29;10.20;99.90
47600;DHT22;33323;52.124;6.018;2024-02-04T14:50:56;10.20;99.90
47600;DHT22;33323;52.124;6.018;2024-02-04T14:53:26;10.20;99.90
47600;DHT22;33323;52.124;6.018;2024-02-04T14:55:53;10.20;99.90
47600;DHT22;33323;52.124;6.018;2024-02-04T14:58:24;10.20;99.90
47600;DHT22;33323;52.124;6.018;2024-02-04T15:00:51;10.20;99.90
47600;DHT22;33323;52.124;6.018;2024-02-04T15:03:18;10.10;99.90
47600;DHT22;33323;52.124;6.018;2024-02-04T15:05:45;10.20;99.90
47600;DHT22;33323;52.124;6.018;2024-02-04T15:08:12;10.20;99.90
47600;DHT22;33323;52.124;6.018;2024-02-04T15:10:39;10.20;99.90
47600;DHT22;33323;52.124;6.018;2024-02-04T15:13:07;10.20;99.90
47600;DHT22;33323;52.124;6.018;2024-02-04T15:15:34;10.20;99.90
47600;DHT22;33323;52.124;6.018;2024-02-04T15:18:02;10.20;99.90
47600;DHT22;33323;52.124;6.018;2024-02-04T15:20:29;10.20;99.90
47600;DHT22;33323;52.124;6.018;2024-02-04T15:22:58;10.20;99.90
47600;DHT22;33323;52.124;6.018;2024-02-04T15:25:28;10.20;99.90
47600;DHT22;33323;52.124;6.018;2024-02-04T15:27:56;10.10;99.90
47600;DHT22;33323;52.124;6.018;2024-02-04T15:30:23;10.10;99.90
47600;DHT22;33323;52.124;6.018;2024-02-04T15:32:51;10.20;99.90
47600;DHT22;33323;52.124;6.018;2024-02-04T15:35:20;10.10;99.90
47600;DHT22;33323;52.124;6.018;2024-02-04T15:37:47;10.10;99.90
47600;DHT22;33323;52.124;6.018;2024-02-04T15:40:14;10.20;99.90
47600;DHT22;33323;52.124;6.018;2024-02-04T15:42:41;10.20;99.90
47600;DHT22;33323;52.124;6.018;2024-02-04T15:45:09;10.10;99.90
47600;DHT22;33323;52.124;6.018;2024-02-04T15:47:48;10.10;99.90
47600;DHT22;33323;52.124;6.018;2024-02-04T15:50:20;10.10;99.90
47600;DHT22;33323;52.124;6.018;2024-02-04T15:52:49;10.10;99.90